Time;durP1;ratioP1;P1;durP2;ratioP2;P2;SDS_P1;SDS_P2;PMS_P1;PMS_P2;Temp;Humidity;BMP_temperature;BMP_pressure;BME280_temperature;BME280_humidity;BME280_pressure;Samples;Min_cycle;Max_cycle;Signal;HPM_P1;HPM_P2
2023/08/05 00:00:59;;;;;;;0.60;0.50;;;16.10;1.00;;;;;;5058620;28;20045;-71
2023/08/05 00:03:26;;;;;;;0.95;0.73;;;16.10;1.00;;;;;;5049945;28;20079;-70
2023/08/05 00:05:53;;;;;;;1.05;0.60;;;16.10;1.00;;;;;;5057599;28;20094;-71
2023/08/05 00:08:20;;;;;;;0.70;0.50;;;16.10;99.90;;;;;;5057735;28;20097;-71
2023/08/05 00:10:47;;;;;;;0.80;0.65;;;16.10;99.90;;;;;;5039834;28;20059;-71
2023/08/05 00:13:14;;;;;;;0.73;0.60;;;16.20;99.90;;;;;;5051576;28;20098;-71
2023/08/05 00:15:40;;;;;;;0.52;0.50;;;16.20;99.90;;;;;;5039937;28;20041;-71
2023/08/05 00:18:09;;;;;;;0.85;0.77;;;16.10;99.90;;;;;;5039679;28;20650;-71
2023/08/05 00:20:36;;;;;;;1.10;0.60;;;16.20;99.90;;;;;;5052905;28;20480;-70
2023/08/05 00:23:03;;;;;;;1.25;0.75;;;16.10;99.90;;;;;;5049509;28;20048;-71
2023/08/05 00:25:30;;;;;;;1.05;0.63;;;16.20;99.90;;;;;;5057943;28;20090;-70
2023/08/05 00:27:57;;;;;;;0.68;0.50;;;16.20;99.90;;;;;;5054228;28;20804;-71
2023/08/05 00:30:24;;;;;;;0.95;0.70;;;16.20;99.90;;;;;;5048510;28;20957;-70
2023/08/05 00:32:51;;;;;;;0.75;0.70;;;16.20;99.90;;;;;;5047129;28;20066;-70
2023/08/05 00:35:18;;;;;;;0.93;0.50;;;16.20;1.00;;;;;;5054261;28;20110;-70
2023/08/05 00:37:45;;;;;;;1.08;0.60;;;16.20;99.90;;;;;;5039168;28;20064;-70
2023/08/05 00:40:12;;;;;;;0.95;0.75;;;16.10;99.90;;;;;;5043943;28;20048;-70
2023/08/05 00:42:39;;;;;;;0.98;0.70;;;16.10;1.00;;;;;;5059091;28;20402;-70
2023/08/05 00:45:06;;;;;;;1.30;0.60;;;16.10;1.00;;;;;;5059183;28;20612;-71
2023/08/05 00:47:33;;;;;;;0.60;0.45;;;16.10;1.00;;;;;;5059032;28;20186;-71
2023/08/05 00:49:59;;;;;;;1.70;0.82;;;16.00;1.00;;;;;;5057526;28;20507;-71
2023/08/05 00:52:26;;;;;;;0.50;0.50;;;16.00;1.00;;;;;;5037014;28;20076;-71
2023/08/05 00:54:53;;;;;;;1.20;0.70;;;16.00;1.00;;;;;;5056528;28;20048;-71
2023/08/05 00:57:20;;;;;;;1.45;0.73;;;16.10;1.00;;;;;;5017137;28;20052;-71
2023/08/05 00:59:47;;;;;;;0.80;0.70;;;16.10;99.90;;;;;;5041032;28;20064;-71
2023/08/05 01:02:14;;;;;;;0.95;0.60;;;16.10;99.90;;;;;;5058434;28;20052;-71
2023/08/05 01:04:40;;;;;;;1.10;0.82;;;16.10;1.00;;;;;;5048390;28;20091;-71
2023/08/05 01:07:07;;;;;;;0.93;0.63;;;16.00;99.90;;;;;;5047270;28;20056;-71
2023/08/05 01:09:34;;;;;;;1.77;1.00;;;16.00;1.00;;;;;;5044228;28;20934;-71
2023/08/05 01:12:02;;;;;;;0.85;0.50;;;16.00;99.90;;;;;;5039453;28;20082;-71
2023/08/05 01:14:31;;;;;;;0.68;0.65;;;16.00;99.90;;;;;;5052489;28;20409;-71
2023/08/05 01:16:58;;;;;;;1.10;0.70;;;15.90;1.00;;;;;;5018679;28;20060;-71
2023/08/05 01:19:25;;;;;;;1.75;1.05;;;15.90;99.90;;;;;;5051717;28;20063;-71
2023/08/05 01:22:13;;;;;;;1.17;0.88;;;15.90;99.90;;;;;;5023491;28;20107;-71
2023/08/05 01:25:02;;;;;;;0.80;0.50;;;15.90;99.90;;;;;;5053842;28;20397;-71
2023/08/05 01:27:29;;;;;;;1.00;0.70;;;15.90;99.90;;;;;;5045939;28;20053;-71
2023/08/05 01:29:55;;;;;;;0.57;0.50;;;15.90;99.90;;;;;;5009787;28;20182;-71
2023/08/05 01:32:22;;;;;;;1.05;0.68;;;15.90;99.90;;;;;;5044165;28;20126;-70
2023/08/05 01:34:49;;;;;;;2.17;1.00;;;15.90;1.00;;;;;;5016747;28;20060;-71
2023/08/05 01:37:16;;;;;;;1.73;0.88;;;15.80;99.90;;;;;;5040934;28;20472;-70
2023/08/05 01:39:45;;;;;;;0.98;0.70;;;15.90;99.90;;;;;;5056240;28;20399;-71
2023/08/05 01:42:12;;;;;;;1.27;0.73;;;15.80;99.90;;;;;;5043442;28;20044;-71
2023/08/05 01:44:38;;;;;;;1.50;0.98;;;15.80;99.90;;;;;;5049783;28;20583;-70
2023/08/05 01:47:05;;;;;;;1.48;0.80;;;15.90;99.90;;;;;;5045632;28;20125;-71
2023/08/05 01:49:32;;;;;;;1.45;0.70;;;15.90;99.90;;;;;;5055423;28;20088;-71
2023/08/05 01:51:59;;;;;;;0.88;0.57;;;15.90;99.90;;;;;;5044275;28;20588;-71
2023/08/05 01:54:26;;;;;;;1.33;0.80;;;15.90;99.90;;;;;;5055362;28;20045;-71
2023/08/05 01:56:53;;;;;;;1.17;0.65;;;15.80;99.90;;;;;;5047422;28;20048;-71
2023/08/05 01:59:19;;;;;;;1.42;0.90;;;15.80;99.90;;;;;;5029462;28;20048;-71
2023/08/05 02:01:46;;;;;;;1.10;0.80;;;15.80;99.90;;;;;;5052413;28;20519;-71
2023/08/05 02:04:13;;;;;;;1.30;0.77;;;15.80;1.00;;;;;;5055315;28;20067;-71
2023/08/05 02:06:40;;;;;;;1.30;0.80;;;15.80;1.00;;;;;;5056230;28;20080;-70
2023/08/05 02:09:08;;;;;;;1.02;0.57;;;15.70;1.00;;;;;;5052076;28;20391;-70
2023/08/05 02:11:35;;;;;;;1.13;0.73;;;15.70;1.00;;;;;;5044438;28;20449;-70
2023/08/05 02:14:02;;;;;;;1.77;0.95;;;15.70;1.00;;;;;;5056754;28;20380;-70
2023/08/05 02:16:30;;;;;;;0.90;0.55;;;15.70;1.00;;;;;;5051082;28;20553;-70
2023/08/05 02:18:56;;;;;;;0.90;0.68;;;15.70;1.00;;;;;;5046687;28;20088;-70
2023/08/05 02:21:24;;;;;;;0.65;0.55;;;15.70;1.00;;;;;;5060627;28;20056;-71
2023/08/05 02:23:52;;;;;;;1.35;1.00;;;15.70;1.00;;;;;;5059838;28;20049;-70
2023/08/05 02:26:18;;;;;;;1.85;0.98;;;15.70;1.00;;;;;;5046503;28;20777;-70
2023/08/05 02:28:46;;;;;;;1.52;0.98;;;15.70;1.00;;;;;;5063706;28;20387;-70
2023/08/05 02:31:16;;;;;;;1.20;0.90;;;15.70;1.00;;;;;;5046950;28;20060;-70
2023/08/05 02:33:43;;;;;;;1.30;0.98;;;15.70;1.00;;;;;;5052702;28;20045;-70
2023/08/05 02:36:09;;;;;;;1.42;0.90;;;15.70;1.00;;;;;;5055656;28;20700;-70
2023/08/05 02:38:36;;;;;;;1.10;1.00;;;15.70;1.00;;;;;;5042428;28;20056;-70
2023/08/05 02:41:07;;;;;;;1.40;0.90;;;15.80;1.00;;;;;;5045652;28;20061;-70
2023/08/05 02:43:34;;;;;;;1.48;1.00;;;15.70;1.00;;;;;;5053475;28;20052;-70
2023/08/05 02:46:01;;;;;;;1.02;0.82;;;15.70;1.00;;;;;;5045352;28;20412;-70
2023/08/05 02:48:28;;;;;;;2.20;1.17;;;15.70;1.00;;;;;;5046450;28;20052;-70
2023/08/05 02:50:54;;;;;;;1.17;0.95;;;15.70;1.00;;;;;;5045529;28;20452;-70
2023/08/05 02:53:21;;;;;;;1.80;1.13;;;15.70;1.00;;;;;;5055440;28;20048;-70
2023/08/05 02:55:48;;;;;;;1.92;1.30;;;15.70;1.00;;;;;;5062783;28;20041;-70
2023/08/05 02:58:15;;;;;;;1.98;1.20;;;15.70;1.00;;;;;;5053881;28;20045;-70
2023/08/05 03:00:42;;;;;;;1.88;1.25;;;15.70;1.00;;;;;;5027419;28;20404;-70
2023/08/05 03:03:10;;;;;;;1.73;1.25;;;15.70;1.00;;;;;;5048376;28;20044;-70
2023/08/05 03:05:36;;;;;;;1.25;1.00;;;15.70;1.00;;;;;;5056024;28;20118;-70
2023/08/05 03:08:03;;;;;;;1.85;1.02;;;15.70;1.00;;;;;;5050095;28;20044;-70
2023/08/05 03:10:30;;;;;;;1.80;1.15;;;15.80;1.00;;;;;;5045836;28;20056;-70
2023/08/05 03:12:57;;;;;;;1.50;1.10;;;15.70;1.00;;;;;;5062709;28;20393;-70
2023/08/05 03:15:28;;;;;;;1.58;1.10;;;15.70;1.00;;;;;;5063610;28;20056;-70
2023/08/05 03:17:55;;;;;;;1.45;1.10;;;15.70;1.00;;;;;;5058334;28;20048;-70
2023/08/05 03:20:23;;;;;;;2.35;1.45;;;15.70;99.90;;;;;;5045880;28;20053;-70
2023/08/05 03:22:54;;;;;;;1.48;1.17;;;15.70;99.90;;;;;;5045588;28;20060;-70
2023/08/05 03:25:21;;;;;;;1.85;1.33;;;15.70;99.90;;;;;;5050637;28;20049;-70
2023/08/05 03:27:49;;;;;;;1.52;1.10;;;15.70;99.90;;;;;;5048886;28;20483;-70
2023/08/05 03:30:16;;;;;;;1.80;1.15;;;15.70;99.90;;;;;;5058385;28;20049;-70
2023/08/05 03:32:43;;;;;;;1.60;1.30;;;15.60;1.00;;;;;;5035004;28;20080;-71
2023/08/05 03:35:10;;;;;;;2.90;1.35;;;15.70;1.00;;;;;;5069595;28;20445;-71
2023/08/05 03:37:36;;;;;;;1.88;1.48;;;15.60;1.00;;;;;;5068118;28;20084;-71
2023/08/05 03:40:04;;;;;;;1.40;1.13;;;15.60;1.00;;;;;;5051067;28;20410;-71
2023/08/05 03:42:31;;;;;;;2.17;1.45;;;15.50;1.00;;;;;;5049397;28;20436;-71
2023/08/05 03:44:58;;;;;;;2.25;1.70;;;15.40;22.50;;;;;;5045308;28;20048;-71
2023/08/05 03:47:25;;;;;;;1.77;1.40;;;15.40;91.70;;;;;;5063442;28;20102;-70
2023/08/05 03:49:52;;;;;;;2.38;1.77;;;15.40;99.90;;;;;;5063435;28;20052;-71
2023/08/05 03:52:19;;;;;;;1.58;1.38;;;15.40;99.90;;;;;;5039151;28;20045;-71
2023/08/05 03:54:46;;;;;;;2.72;1.50;;;15.40;99.90;;;;;;5043535;28;20090;-71
2023/08/05 03:57:12;;;;;;;3.30;1.90;;;15.40;99.90;;;;;;5055913;28;20094;-71
2023/08/05 03:59:40;;;;;;;2.58;1.45;;;15.40;99.90;;;;;;5063189;28;20473;-71
2023/08/05 04:02:07;;;;;;;2.40;1.73;;;15.30;99.90;;;;;;5062816;28;20093;-71
2023/08/05 04:04:34;;;;;;;2.33;1.42;;;15.30;99.90;;;;;;5054466;28;20464;-70
2023/08/05 04:07:01;;;;;;;1.90;1.60;;;15.30;99.90;;;;;;5062208;28;20044;-70
2023/08/05 04:09:28;;;;;;;2.70;2.00;;;15.30;99.90;;;;;;5057681;28;20106;-70
2023/08/05 04:11:58;;;;;;;2.70;1.85;;;15.20;99.90;;;;;;5060585;28;20132;-71
2023/08/05 04:14:25;;;;;;;2.72;1.92;;;15.20;1.00;;;;;;5053998;28;20051;-70
2023/08/05 04:16:54;;;;;;;2.30;1.63;;;15.20;99.90;;;;;;5060179;28;20048;-70
2023/08/05 04:19:22;;;;;;;2.58;1.90;;;15.20;99.90;;;;;;5038798;28;20045;-71
2023/08/05 04:21:52;;;;;;;2.70;2.00;;;15.20;1.00;;;;;;5060633;28;20510;-71
2023/08/05 04:24:22;;;;;;;2.85;1.83;;;15.20;1.00;;;;;;5058128;28;20071;-71
2023/08/05 04:26:53;;;;;;;2.63;1.52;;;15.10;1.00;;;;;;5029767;28;20105;-71
2023/08/05 04:29:22;;;;;;;2.10;1.48;;;15.10;1.00;;;;;;5061596;28;20136;-71
2023/08/05 04:31:49;;;;;;;2.70;1.70;;;15.10;1.00;;;;;;5028336;28;20449;-71
2023/08/05 04:34:16;;;;;;;2.10;1.40;;;15.10;1.00;;;;;;5044130;28;20057;-71
2023/08/05 04:36:47;;;;;;;2.15;1.83;;;15.10;79.70;;;;;;5060928;28;20040;-71
2023/08/05 04:39:14;;;;;;;2.33;1.33;;;15.10;99.90;;;;;;5041082;28;20441;-71
2023/08/05 04:41:41;;;;;;;2.03;1.23;;;15.10;99.90;;;;;;5033142;28;20098;-71
2023/08/05 04:44:09;;;;;;;1.95;1.50;;;15.00;99.90;;;;;;5054173;28;20801;-71
2023/08/05 04:46:36;;;;;;;2.28;1.73;;;15.00;99.90;;;;;;5056271;28;20048;-71
2023/08/05 04:49:05;;;;;;;2.42;1.80;;;15.00;99.90;;;;;;5042176;28;20048;-70
2023/08/05 04:51:31;;;;;;;2.22;1.60;;;15.00;99.90;;;;;;5062249;28;20045;-70
2023/08/05 04:53:58;;;;;;;2.40;1.63;;;15.00;99.90;;;;;;5050728;28;20115;-71
2023/08/05 04:56:25;;;;;;;2.40;1.67;;;15.00;99.90;;;;;;5052941;28;20475;-70
2023/08/05 04:58:52;;;;;;;3.75;1.75;;;15.00;99.90;;;;;;5057300;28;20379;-70
2023/08/05 05:01:19;;;;;;;2.83;2.10;;;14.90;42.80;;;;;;5043235;28;20044;-70
2023/08/05 05:03:46;;;;;;;3.63;1.63;;;14.90;91.30;;;;;;5046717;28;20080;-70
2023/08/05 05:06:13;;;;;;;3.22;2.08;;;14.90;1.00;;;;;;5058002;28;20114;-72
2023/08/05 05:08:40;;;;;;;2.90;1.88;;;14.90;1.00;;;;;;5040044;28;20156;-71
2023/08/05 05:11:10;;;;;;;2.22;1.80;;;14.90;1.00;;;;;;5039002;28;20056;-71
2023/08/05 05:13:38;;;;;;;2.42;1.65;;;14.90;1.00;;;;;;5044108;28;20144;-71
2023/08/05 05:16:05;;;;;;;2.58;2.13;;;15.00;99.90;;;;;;5039181;28;20049;-71
2023/08/05 05:18:32;;;;;;;2.80;1.83;;;15.00;99.90;;;;;;5037178;28;20053;-71
2023/08/05 05:21:00;;;;;;;2.75;1.77;;;15.00;99.90;;;;;;5036397;28;20061;-71
2023/08/05 05:23:26;;;;;;;1.88;1.50;;;15.00;99.90;;;;;;5030037;28;20128;-71
2023/08/05 05:25:53;;;;;;;1.67;1.40;;;15.00;99.90;;;;;;5054962;28;20131;-71
2023/08/05 05:28:20;;;;;;;2.55;1.75;;;15.00;99.90;;;;;;5055021;28;20037;-71
2023/08/05 05:30:47;;;;;;;3.08;2.20;;;15.00;99.90;;;;;;5059452;28;20048;-71
2023/08/05 05:33:13;;;;;;;3.50;2.20;;;15.00;99.90;;;;;;5051885;28;20060;-72
2023/08/05 05:35:40;;;;;;;2.47;2.03;;;15.10;99.90;;;;;;5060495;28;20126;-71
2023/08/05 05:38:07;;;;;;;2.67;2.10;;;15.10;99.90;;;;;;5059936;28;20492;-71
2023/08/05 05:40:41;;;;;;;2.50;1.83;;;15.20;99.90;;;;;;5060502;28;20052;-71
2023/08/05 05:43:08;;;;;;;2.30;1.90;;;15.30;99.90;;;;;;5059452;28;20094;-71
2023/08/05 05:45:35;;;;;;;2.50;2.00;;;15.30;99.90;;;;;;5060262;28;20124;-71
2023/08/05 05:48:02;;;;;;;3.40;2.25;;;15.30;99.90;;;;;;5052997;28;20055;-72
2023/08/05 05:50:29;;;;;;;3.20;2.60;;;15.40;99.90;;;;;;5043228;28;20049;-71
2023/08/05 05:52:56;;;;;;;3.30;2.55;;;15.30;99.90;;;;;;5047240;28;20044;-71
2023/08/05 05:55:23;;;;;;;2.75;2.13;;;15.30;99.90;;;;;;5033760;28;20049;-71
2023/08/05 05:57:50;;;;;;;2.40;2.13;;;15.30;99.90;;;;;;5047021;28;20044;-71
2023/08/05 06:00:17;;;;;;;2.53;2.10;;;15.30;99.90;;;;;;5022241;28;20492;-72
2023/08/05 06:02:44;;;;;;;2.70;2.13;;;15.20;1.00;;;;;;5047004;28;20052;-70
2023/08/05 06:05:12;;;;;;;2.72;2.08;;;15.20;99.90;;;;;;5050119;28;20500;-70
2023/08/05 06:07:39;;;;;;;3.97;2.15;;;15.30;99.90;;;;;;5047174;28;20135;-70
2023/08/05 06:10:06;;;;;;;3.85;2.53;;;15.30;99.90;;;;;;5047316;28;20143;-70
2023/08/05 06:12:37;;;;;;;2.97;1.88;;;15.30;99.90;;;;;;5047429;28;20874;-70
2023/08/05 06:15:07;;;;;;;2.60;1.90;;;15.20;99.90;;;;;;5052883;28;20040;-70
2023/08/05 06:17:34;;;;;;;2.75;1.90;;;15.20;99.90;;;;;;5060410;28;20044;-71
2023/08/05 06:20:01;;;;;;;3.05;2.05;;;15.20;99.90;;;;;;5064331;28;20052;-70
2023/08/05 06:22:27;;;;;;;2.30;1.92;;;15.20;99.90;;;;;;5054943;28;20053;-70
2023/08/05 06:24:54;;;;;;;2.78;2.20;;;15.20;99.90;;;;;;5058596;28;20151;-71
2023/08/05 06:27:21;;;;;;;3.50;2.55;;;15.20;99.90;;;;;;5060718;28;20048;-70
2023/08/05 06:29:48;;;;;;;2.60;2.03;;;15.20;99.90;;;;;;5055582;28;21059;-70
2023/08/05 06:32:15;;;;;;;2.85;2.33;;;15.20;99.90;;;;;;5059830;28;20093;-70
2023/08/05 06:34:41;;;;;;;3.03;2.72;;;15.20;99.90;;;;;;5058504;28;20468;-70
2023/08/05 06:37:11;;;;;;;3.35;2.30;;;15.10;99.90;;;;;;5061132;28;20112;-70
2023/08/05 06:39:38;;;;;;;2.83;2.17;;;15.20;1.00;;;;;;5035060;28;20052;-70
2023/08/05 06:42:05;;;;;;;3.03;2.15;;;15.20;1.00;;;;;;5049073;28;20041;-71
2023/08/05 06:44:31;;;;;;;2.30;2.00;;;15.20;1.00;;;;;;5043320;28;20052;-71
2023/08/05 06:46:58;;;;;;;2.78;2.08;;;15.20;1.00;;;;;;5062317;28;20539;-71
2023/08/05 06:49:25;;;;;;;2.88;2.30;;;15.30;99.90;;;;;;5052776;28;20761;-70
2023/08/05 06:51:52;;;;;;;3.60;2.55;;;15.30;49.30;;;;;;5056832;28;20052;-71
2023/08/05 06:54:23;;;;;;;2.40;2.10;;;15.30;99.90;;;;;;5046793;28;20486;-70
2023/08/05 06:56:51;;;;;;;3.22;2.70;;;15.30;99.90;;;;;;5049278;28;20080;-70
2023/08/05 06:59:18;;;;;;;2.63;2.13;;;15.30;1.00;;;;;;5053506;28;20052;-70
2023/08/05 07:01:45;;;;;;;3.38;2.63;;;15.20;1.00;;;;;;5043149;28;20057;-70
2023/08/05 07:04:14;;;;;;;3.00;2.50;;;15.20;89.30;;;;;;5047049;28;20060;-70
2023/08/05 07:06:43;;;;;;;3.05;2.40;;;15.30;99.90;;;;;;5061649;28;20052;-72
2023/08/05 07:09:10;;;;;;;3.22;2.20;;;15.30;99.90;;;;;;5031837;28;20140;-72
2023/08/05 07:11:37;;;;;;;2.85;2.08;;;15.30;1.00;;;;;;5061309;28;20067;-72
2023/08/05 07:14:04;;;;;;;2.80;2.22;;;15.40;13.30;;;;;;5037168;28;20056;-73
2023/08/05 07:16:31;;;;;;;3.20;2.63;;;15.40;99.90;;;;;;5057200;28;20408;-73
2023/08/05 07:18:58;;;;;;;3.50;2.75;;;15.50;99.90;;;;;;5024058;28;20079;-73
2023/08/05 07:21:25;;;;;;;3.10;2.42;;;15.60;99.90;;;;;;5031598;28;20056;-73
2023/08/05 07:23:51;;;;;;;3.47;2.33;;;15.60;99.90;;;;;;5044299;28;20040;-72
2023/08/05 07:26:18;;;;;;;2.78;2.28;;;15.70;99.90;;;;;;5051052;28;20163;-72
2023/08/05 07:28:45;;;;;;;3.33;2.58;;;15.80;1.00;;;;;;5046428;28;20041;-72
2023/08/05 07:31:12;;;;;;;2.83;2.30;;;15.90;99.90;;;;;;5049980;28;20071;-71
2023/08/05 07:33:41;;;;;;;3.38;2.95;;;15.90;90.60;;;;;;5043861;28;20182;-72
2023/08/05 07:36:09;;;;;;;2.40;1.77;;;15.90;1.00;;;;;;5041484;28;20052;-70
2023/08/05 07:38:42;;;;;;;2.88;2.05;;;16.00;99.90;;;;;;5045532;28;20049;-71
2023/08/05 07:41:12;;;;;;;2.85;2.30;;;16.00;29.40;;;;;;5047477;28;20057;-72
2023/08/05 07:43:39;;;;;;;2.78;2.35;;;16.00;99.90;;;;;;5046713;28;20064;-71
2023/08/05 07:46:06;;;;;;;2.72;2.15;;;15.90;99.90;;;;;;5038223;28;20049;-72
2023/08/05 07:48:37;;;;;;;3.47;3.15;;;15.90;99.90;;;;;;5044877;28;20067;-72
2023/08/05 07:51:06;;;;;;;2.20;1.98;;;15.90;99.90;;;;;;5045046;28;20056;-72
2023/08/05 07:53:35;;;;;;;2.70;2.20;;;15.90;99.90;;;;;;5029004;28;20055;-71
2023/08/05 07:56:09;;;;;;;3.42;2.75;;;15.80;99.90;;;;;;5019837;28;20064;-72
2023/08/05 07:58:39;;;;;;;3.20;2.70;;;15.80;98.70;;;;;;5051307;28;20200;-72
2023/08/05 08:01:07;;;;;;;2.45;2.13;;;15.80;99.90;;;;;;5026656;28;20048;-72
2023/08/05 08:03:34;;;;;;;3.50;2.70;;;15.70;99.90;;;;;;5042555;28;20051;-72
2023/08/05 08:06:01;;;;;;;3.15;2.67;;;15.70;99.90;;;;;;5049777;28;20083;-72
2023/08/05 08:08:28;;;;;;;2.67;2.42;;;15.70;1.00;;;;;;5048036;28;20041;-71
2023/08/05 08:10:54;;;;;;;2.80;2.35;;;15.70;99.90;;;;;;5040014;28;20053;-72
2023/08/05 08:13:21;;;;;;;2.88;2.47;;;15.70;1.00;;;;;;5048486;28;20443;-70
2023/08/05 08:15:48;;;;;;;3.72;2.72;;;15.70;99.90;;;;;;5044928;28;20052;-71
2023/08/05 08:18:15;;;;;;;3.05;2.42;;;15.70;99.90;;;;;;5037560;28;20057;-72
2023/08/05 08:20:48;;;;;;;3.28;2.42;;;15.70;1.00;;;;;;5046709;28;20483;-72
2023/08/05 08:23:15;;;;;;;3.25;2.70;;;15.60;99.90;;;;;;5055180;28;20090;-72
2023/08/05 08:25:42;;;;;;;3.22;2.50;;;15.40;99.90;;;;;;5051236;28;20126;-72
2023/08/05 08:28:09;;;;;;;2.90;2.47;;;15.40;1.00;;;;;;5037928;28;20057;-72
2023/08/05 08:30:35;;;;;;;3.17;2.58;;;15.40;24.10;;;;;;5039918;28;20113;-73
2023/08/05 08:33:03;;;;;;;2.90;2.47;;;15.30;99.90;;;;;;5043111;28;20102;-72
2023/08/05 08:35:30;;;;;;;2.97;2.30;;;15.30;99.90;;;;;;5049606;28;20131;-73
2023/08/05 08:37:57;;;;;;;3.00;2.30;;;15.40;1.00;;;;;;5034352;28;20153;-78
2023/08/05 08:40:24;;;;;;;3.17;2.58;;;15.50;1.00;;;;;;5045635;28;20049;-78
2023/08/05 08:42:51;;;;;;;2.85;2.47;;;15.60;1.00;;;;;;5023001;28;20118;-77
2023/08/05 08:45:17;;;;;;;3.70;2.72;;;15.70;1.00;;;;;;5037118;28;20067;-77
2023/08/05 08:47:45;;;;;;;2.58;2.22;;;15.80;99.90;;;;;;5043279;28;20571;-77
2023/08/05 08:50:12;;;;;;;2.42;2.22;;;16.00;99.90;;;;;;5040569;28;20044;-76
2023/08/05 08:52:41;;;;;;;2.55;2.20;;;16.10;99.90;;;;;;5026525;28;20595;-77
2023/08/05 08:55:09;;;;;;;3.38;2.70;;;16.20;99.90;;;;;;5045905;28;20049;-77
2023/08/05 08:57:36;;;;;;;2.70;2.33;;;16.20;83.60;;;;;;5011804;28;20067;-76
2023/08/05 09:00:03;;;;;;;3.67;2.80;;;16.10;1.00;;;;;;5049623;28;20056;-77
2023/08/05 09:02:30;;;;;;;3.78;2.97;;;15.90;1.00;;;;;;5033480;28;20094;-76
2023/08/05 09:04:57;;;;;;;3.38;2.83;;;15.80;99.90;;;;;;5018122;28;20531;-75
2023/08/05 09:07:26;;;;;;;3.58;2.60;;;15.70;1.00;;;;;;5045451;28;20052;-76
2023/08/05 09:09:53;;;;;;;3.67;2.60;;;15.70;1.00;;;;;;5025812;28;20095;-76
2023/08/05 09:12:20;;;;;;;3.33;2.58;;;15.80;1.00;;;;;;5026168;28;20049;-76
2023/08/05 09:14:53;;;;;;;3.28;1.92;;;15.90;99.90;;;;;;5022398;28;20064;-76
2023/08/05 09:17:21;;;;;;;3.55;2.72;;;15.90;1.00;;;;;;5024496;28;20045;-76
2023/08/05 09:19:47;;;;;;;4.28;2.65;;;15.80;78.90;;;;;;5045447;28;20108;-76
2023/08/05 09:22:14;;;;;;;3.00;2.30;;;15.70;14.20;;;;;;5010237;28;20478;-75
2023/08/05 09:24:41;;;;;;;2.67;1.83;;;15.70;99.90;;;;;;5044050;28;20171;-76
2023/08/05 09:27:08;;;;;;;2.47;2.05;;;15.70;99.90;;;;;;5051444;28;20444;-75
2023/08/05 09:29:36;;;;;;;2.45;1.58;;;15.70;1.00;;;;;;5052593;28;20072;-77
2023/08/05 09:32:04;;;;;;;2.55;1.80;;;15.80;1.00;;;;;;5052296;28;20048;-75
2023/08/05 09:34:35;;;;;;;2.35;1.70;;;15.90;99.90;;;;;;5049095;28;20128;-76
2023/08/05 09:37:02;;;;;;;2.90;2.25;;;16.10;1.00;;;;;;5048889;28;20060;-75
2023/08/05 09:39:47;;;;;;;2.95;2.10;;;15.90;99.90;;;;;;5031187;28;20055;-77
2023/08/05 09:42:23;;;;;;;3.53;2.50;;;15.80;99.90;;;;;;5054134;28;20533;-76
2023/08/05 09:44:54;;;;;;;2.85;2.20;;;15.70;43.00;;;;;;5039288;28;20210;-76
2023/08/05 09:47:24;;;;;;;3.28;2.40;;;15.50;23.30;;;;;;5058088;28;20135;-76
2023/08/05 09:49:52;;;;;;;3.00;2.08;;;15.40;1.00;;;;;;5050140;28;20048;-76
2023/08/05 09:52:21;;;;;;;3.47;1.83;;;15.40;99.90;;;;;;5042313;28;20045;-76
2023/08/05 09:54:59;;;;;;;3.08;2.05;;;15.60;1.00;;;;;;5030903;28;20478;-76
2023/08/05 09:57:26;;;;;;;2.72;1.67;;;15.60;99.90;;;;;;5031654;28;20582;-76
2023/08/05 09:59:55;;;;;;;1.35;1.10;;;15.70;99.90;;;;;;5047874;28;20488;-76
2023/08/05 10:02:30;;;;;;;2.17;1.40;;;15.70;99.90;;;;;;5035799;28;20556;-76
2023/08/05 10:04:57;;;;;;;1.67;1.23;;;15.70;1.00;;;;;;5042761;28;20136;-76
2023/08/05 10:07:24;;;;;;;1.63;1.00;;;15.70;99.90;;;;;;5040396;28;20049;-76
2023/08/05 10:09:51;;;;;;;2.55;1.73;;;15.80;1.00;;;;;;5035599;28;20071;-76
2023/08/05 10:12:22;;;;;;;1.80;1.40;;;16.00;99.90;;;;;;5038484;28;20043;-76
2023/08/05 10:14:49;;;;;;;2.08;1.20;;;16.20;1.00;;;;;;5036620;28;20101;-76
2023/08/05 10:17:19;;;;;;;1.77;1.10;;;16.50;99.90;;;;;;5038124;28;20048;-76
2023/08/05 10:19:50;;;;;;;1.70;1.10;;;16.70;99.90;;;;;;5029810;28;20533;-76
2023/08/05 10:22:24;;;;;;;1.08;0.80;;;17.00;1.00;;;;;;5042019;28;20510;-77
2023/08/05 10:24:56;;;;;;;1.73;1.17;;;17.30;1.00;;;;;;5036410;28;20048;-77
2023/08/05 10:27:33;;;;;;;1.43;1.13;;;17.40;99.90;;;;;;5021591;28;20073;-77
2023/08/05 10:30:14;;;;;;;1.58;1.10;;;17.40;1.00;;;;;;5042172;28;20374;-76
2023/08/05 10:32:49;;;;;;;1.00;0.80;;;17.30;99.90;;;;;;5047442;28;20049;-75
2023/08/05 10:35:29;;;;;;;1.20;0.95;;;17.20;99.90;;;;;;5047581;28;20045;-75
2023/08/05 10:38:19;;;;;;;1.75;1.10;;;16.90;99.90;;;;;;5034703;28;20361;-76
2023/08/05 10:41:00;;;;;;;1.75;1.23;;;16.70;23.50;;;;;;5030499;28;20089;-76
2023/08/05 10:43:30;;;;;;;2.13;1.10;;;16.70;99.90;;;;;;5042228;28;20119;-76
2023/08/05 10:45:58;;;;;;;1.77;1.17;;;16.50;98.50;;;;;;5045059;28;20124;-76
2023/08/05 10:48:30;;;;;;;1.73;1.10;;;16.40;99.90;;;;;;5035476;28;20514;-72
2023/08/05 10:50:57;;;;;;;1.92;1.27;;;16.30;1.00;;;;;;5049256;28;20480;-72
2023/08/05 10:53:24;;;;;;;1.35;1.00;;;16.30;1.00;;;;;;5049576;28;20147;-72
2023/08/05 10:55:55;;;;;;;1.17;0.90;;;16.40;99.90;;;;;;5042249;28;20162;-72
2023/08/05 10:58:23;;;;;;;0.88;0.60;;;16.60;99.90;;;;;;5023106;28;20530;-72
2023/08/05 11:01:00;;;;;;;1.00;0.70;;;16.70;99.90;;;;;;5015900;28;20147;-72
2023/08/05 11:03:43;;;;;;;0.50;0.50;;;16.90;99.90;;;;;;5029142;28;20197;-71
2023/08/05 11:06:11;;;;;;;0.60;0.60;;;17.30;1.00;;;;;;5046493;28;20054;-72
2023/08/05 11:08:39;;;;;;;0.50;0.50;;;17.70;99.90;;;;;;5032130;28;20064;-72
2023/08/05 11:11:10;;;;;;;0.40;0.40;;;18.00;11.10;;;;;;5042069;28;20049;-72
2023/08/05 11:13:38;;;;;;;0.55;0.50;;;18.20;99.90;;;;;;5030291;28;20045;-72
2023/08/05 11:16:08;;;;;;;0.45;0.45;;;18.50;99.90;;;;;;5043214;28;20102;-72
2023/08/05 11:18:36;;;;;;;0.38;0.38;;;18.60;99.90;;;;;;5044424;28;20043;-72
2023/08/05 11:21:07;;;;;;;0.30;0.30;;;18.80;1.00;;;;;;5045587;28;20086;-72
2023/08/05 11:23:36;;;;;;;0.30;0.30;;;18.80;99.90;;;;;;5026414;28;20874;-72
2023/08/05 11:26:04;;;;;;;0.43;0.40;;;18.90;99.90;;;;;;5033126;28;20059;-72
2023/08/05 11:28:31;;;;;;;0.20;0.20;;;19.10;99.90;;;;;;5049268;28;20052;-71
2023/08/05 11:31:00;;;;;;;0.30;0.30;;;19.30;99.90;;;;;;5059341;28;20071;-71
2023/08/05 11:33:28;;;;;;;0.20;0.20;;;19.20;1.00;;;;;;5063928;28;20067;-71
2023/08/05 11:35:55;;;;;;;0.20;0.20;;;19.10;1.00;;;;;;5054961;28;20067;-71
2023/08/05 11:38:22;;;;;;;0.30;0.30;;;19.20;1.00;;;;;;5040046;28;20047;-71
2023/08/05 11:40:55;;;;;;;0.40;0.30;;;19.10;99.90;;;;;;5037862;28;20705;-71
2023/08/05 11:43:22;;;;;;;;;;;19.00;1.00;;;;;;5042264;28;20041;-71
2023/08/05 11:45:49;;;;;;;0.20;0.20;;;18.90;99.90;;;;;;5050798;28;20012;-72
2023/08/05 11:48:16;;;;;;;0.17;0.17;;;19.00;99.90;;;;;;5048632;28;20147;-71
2023/08/05 11:50:43;;;;;;;0.20;0.20;;;19.00;99.90;;;;;;5067799;28;20060;-73
2023/08/05 11:53:12;;;;;;;0.13;0.13;;;19.10;99.90;;;;;;5031911;28;20673;-72
2023/08/05 11:55:39;;;;;;;0.20;0.20;;;19.10;42.90;;;;;;5033365;28;20681;-72
2023/08/05 11:58:06;;;;;;;0.20;0.20;;;19.20;99.90;;;;;;5024409;28;20068;-72
2023/08/05 12:00:33;;;;;;;0.10;0.10;;;19.30;99.90;;;;;;5051776;28;20043;-71
2023/08/05 12:03:03;;;;;;;0.20;0.20;;;19.20;99.90;;;;;;5053185;28;20055;-73
2023/08/05 12:05:30;;;;;;;0.10;0.10;;;18.90;99.90;;;;;;5055078;28;20079;-72
2023/08/05 12:07:56;;;;;;;0.20;0.20;;;18.90;99.90;;;;;;5054733;28;20122;-72
2023/08/05 12:10:23;;;;;;;0.08;0.08;;;18.80;99.90;;;;;;5056091;28;20495;-72
2023/08/05 12:12:50;;;;;;;0.20;0.20;;;18.60;90.00;;;;;;5062197;28;20055;-72
2023/08/05 12:15:24;;;;;;;0.10;0.10;;;18.50;72.00;;;;;;5049092;28;20067;-72
2023/08/05 12:17:58;;;;;;;0.13;0.13;;;18.30;1.00;;;;;;5055196;28;20394;-72
2023/08/05 12:20:27;;;;;;;0.10;0.10;;;18.20;99.90;;;;;;5058217;28;20049;-71
2023/08/05 12:22:54;;;;;;;0.10;0.10;;;18.20;99.90;;;;;;5052035;28;20055;-71
2023/08/05 12:25:24;;;;;;;0.17;0.17;;;18.30;1.00;;;;;;5054447;28;20048;-71
2023/08/05 12:27:50;;;;;;;0.28;0.25;;;18.40;1.00;;;;;;5061587;28;20048;-71
2023/08/05 12:30:17;;;;;;;0.20;0.20;;;18.40;1.00;;;;;;5054071;28;20546;-71
2023/08/05 12:32:44;;;;;;;0.38;0.28;;;18.50;1.00;;;;;;5019990;28;20128;-71
2023/08/05 12:35:11;;;;;;;0.10;0.10;;;18.60;1.00;;;;;;5052819;28;20122;-71
2023/08/05 12:37:39;;;;;;;0.15;0.10;;;18.60;99.90;;;;;;5050204;28;20044;-72
2023/08/05 12:40:07;;;;;;;0.28;0.20;;;18.50;1.00;;;;;;5019508;28;20138;-72
2023/08/05 12:42:34;;;;;;;0.80;0.25;;;18.40;99.90;;;;;;5062619;28;20138;-71
2023/08/05 12:45:03;;;;;;;0.47;0.20;;;18.30;1.00;;;;;;5054245;28;20420;-72
2023/08/05 12:47:38;;;;;;;0.22;0.20;;;18.20;99.90;;;;;;5033293;28;20052;-71
2023/08/05 12:50:05;;;;;;;0.15;0.15;;;18.10;99.90;;;;;;5054039;28;20052;-71
2023/08/05 12:52:32;;;;;;;0.52;0.22;;;18.10;99.90;;;;;;5051508;28;20086;-72
2023/08/05 12:54:59;;;;;;;0.30;0.20;;;18.10;99.90;;;;;;5066303;28;20079;-72